createdAt,value
2023-01-30T00:00:24.241Z,4.70
2023-01-30T00:02:58.753Z,5.82
2023-01-30T00:05:33.480Z,5.68
2023-01-30T00:08:09.071Z,4.45
2023-01-30T00:10:45.947Z,5.38
2023-01-30T00:13:22.641Z,5.70
2023-01-30T00:15:57.058Z,5.40
2023-01-30T00:18:32.961Z,4.50
2023-01-30T00:21:08.278Z,3.10
2023-01-30T00:23:46.250Z,4.40
2023-01-30T00:26:21.828Z,3.08
2023-01-30T00:28:59.202Z,3.70
2023-01-30T00:31:34.114Z,4.95
2023-01-30T00:34:08.431Z,3.42
2023-01-30T00:36:42.571Z,3.88
2023-01-30T00:39:21.889Z,3.33
2023-01-30T00:42:12.879Z,6.93
2023-01-30T00:45:04.828Z,3.60
2023-01-30T00:47:38.970Z,3.00
2023-01-30T00:50:14.965Z,4.63
2023-01-30T00:52:54.685Z,3.50
2023-01-30T00:55:34.408Z,3.30
2023-01-30T00:58:12.514Z,2.85
2023-01-30T01:00:54.192Z,3.58
2023-01-30T01:03:34.684Z,4.25
2023-01-30T01:06:17.768Z,3.85
2023-01-30T01:08:56.763Z,7.20
2023-01-30T01:11:33.401Z,4.80
2023-01-30T01:14:09.362Z,2.42
2023-01-30T01:16:45.457Z,5.97
2023-01-30T01:19:21.388Z,3.80
2023-01-30T01:21:57.409Z,3.67
2023-01-30T01:24:32.625Z,3.03
2023-01-30T01:27:12.309Z,5.10
2023-01-30T01:29:53.510Z,2.20
2023-01-30T01:32:35.105Z,2.72
2023-01-30T01:35:10.029Z,3.40
2023-01-30T01:37:48.119Z,3.50
2023-01-30T01:41:26.726Z,3.73
2023-01-30T01:44:07.038Z,3.10
2023-01-30T01:46:50.840Z,2.92
2023-01-30T01:49:27.582Z,3.28
2023-01-30T01:52:04.916Z,2.55
2023-01-30T01:54:42.249Z,3.60
2023-01-30T01:57:22.585Z,3.63
2023-01-30T02:00:16.358Z,5.40
2023-01-30T02:02:52.817Z,4.70
2023-01-30T02:05:28.247Z,4.10
2023-01-30T02:08:10.454Z,3.80
2023-01-30T02:10:50.503Z,2.58
2023-01-30T02:13:26.945Z,3.58
2023-01-30T02:16:19.011Z,4.28
2023-01-30T02:18:53.717Z,3.55
2023-01-30T02:21:47.911Z,3.20
2023-01-30T02:24:31.393Z,3.10
2023-01-30T02:27:26.031Z,3.42
2023-01-30T02:30:14.934Z,4.18
2023-01-30T02:33:00.571Z,3.55
2023-01-30T02:35:42.071Z,4.10
2023-01-30T02:38:22.583Z,4.68
2023-01-30T02:41:05.295Z,3.70
2023-01-30T02:43:45.205Z,3.47
2023-01-30T02:46:24.042Z,3.80
2023-01-30T02:49:03.544Z,3.03
2023-01-30T02:51:41.254Z,3.38
2023-01-30T02:54:19.095Z,2.22
2023-01-30T02:56:54.146Z,4.63
2023-01-30T02:59:37.114Z,4.18
2023-01-30T03:02:23.052Z,2.90
2023-01-30T03:05:11.849Z,4.30
2023-01-30T03:07:50.264Z,5.28
2023-01-30T03:10:29.156Z,2.70
2023-01-30T03:13:15.164Z,5.05
2023-01-30T03:16:11.821Z,5.70
2023-01-30T03:18:47.111Z,4.05
2023-01-30T03:21:25.729Z,4.15
2023-01-30T03:24:00.192Z,4.45
2023-01-30T03:26:35.990Z,4.72
2023-01-30T03:32:30.187Z,4.78
2023-01-30T03:35:04.468Z,7.18
2023-01-30T03:37:41.065Z,4.05
2023-01-30T03:40:43.466Z,3.63
2023-01-30T03:44:26.361Z,4.18
2023-01-30T03:47:03.678Z,4.40
2023-01-30T03:49:38.652Z,4.75
2023-01-30T03:52:16.735Z,6.13
2023-01-30T03:55:08.415Z,4.45
2023-01-30T03:57:45.150Z,4.85
2023-01-30T04:00:20.802Z,8.43
2023-01-30T04:02:58.748Z,4.97
2023-01-30T04:08:51.770Z,4.15
2023-01-30T04:11:38.356Z,3.53
2023-01-30T04:14:18.546Z,4.50
2023-01-30T04:17:19.767Z,5.65
2023-01-30T04:20:25.096Z,4.05
2023-01-30T04:23:01.901Z,3.90
2023-01-30T04:25:38.760Z,4.38
2023-01-30T04:28:18.755Z,5.28
2023-01-30T04:30:58.358Z,3.65
2023-01-30T04:33:56.780Z,4.45
2023-01-30T04:36:43.516Z,5.70
2023-01-30T04:39:20.480Z,3.65
2023-01-30T04:42:03.435Z,5.38
2023-01-30T04:44:49.322Z,6.40
2023-01-30T04:47:32.622Z,4.63
2023-01-30T04:50:19.647Z,5.47
2023-01-30T04:52:55.255Z,5.45
2023-01-30T04:55:29.944Z,5.22
2023-01-30T04:58:26.330Z,6.57
2023-01-30T05:01:29.658Z,3.88
2023-01-30T05:04:25.773Z,5.85
2023-01-30T05:07:03.646Z,5.45
2023-01-30T05:09:39.092Z,4.88
2023-01-30T05:12:13.555Z,5.07
2023-01-30T05:14:49.064Z,6.05
2023-01-30T05:17:27.454Z,4.40
2023-01-30T05:20:04.013Z,4.63
2023-01-30T05:22:38.177Z,5.50
2023-01-30T05:25:15.534Z,4.18
2023-01-30T05:28:34.654Z,4.80
2023-01-30T05:31:28.585Z,5.80
2023-01-30T05:34:04.334Z,5.85
2023-01-30T05:36:46.900Z,7.05
2023-01-30T05:39:21.289Z,5.93
2023-01-30T05:41:56.109Z,7.18
2023-01-30T05:44:31.895Z,7.55
2023-01-30T05:47:10.421Z,8.77
2023-01-30T05:49:45.208Z,9.40
2023-01-30T05:52:21.793Z,13.80
2023-01-30T05:55:03.255Z,9.90
2023-01-30T05:57:38.846Z,12.05
2023-01-30T06:00:22.873Z,11.35
2023-01-30T06:02:58.136Z,11.27
2023-01-30T06:05:33.821Z,9.77
2023-01-30T06:08:12.234Z,8.85
2023-01-30T06:10:47.716Z,7.18
2023-01-30T06:13:22.126Z,7.53
2023-01-30T06:15:58.099Z,6.65
2023-01-30T06:18:34.332Z,10.85
2023-01-30T06:21:11.169Z,7.53
2023-01-30T06:23:48.053Z,9.15
2023-01-30T06:26:22.645Z,8.82
2023-01-30T06:29:07.961Z,7.88
2023-01-30T06:31:51.673Z,9.88
2023-01-30T06:34:26.445Z,12.57
2023-01-30T06:37:51.425Z,13.80
2023-01-30T06:40:29.273Z,13.82
2023-01-30T06:43:04.481Z,14.70
2023-01-30T06:46:07.419Z,12.95
2023-01-30T06:48:55.886Z,13.63
2023-01-30T06:51:31.140Z,10.48
2023-01-30T06:54:06.386Z,9.13
2023-01-30T06:56:44.529Z,9.77
2023-01-30T06:59:19.673Z,9.27
2023-01-30T07:01:55.640Z,10.18
2023-01-30T07:04:31.765Z,6.15
2023-01-30T07:07:07.416Z,5.13
2023-01-30T07:10:20.968Z,4.47
2023-01-30T07:12:58.859Z,7.70
2023-01-30T07:15:54.361Z,6.32
2023-01-30T07:18:30.556Z,6.95
2023-01-30T07:21:09.122Z,6.63
2023-01-30T07:24:35.131Z,5.88
2023-01-30T07:30:41.566Z,9.48
2023-01-30T07:33:16.595Z,10.73
2023-01-30T07:35:53.275Z,8.75
2023-01-30T07:38:30.964Z,7.35
2023-01-30T07:41:05.910Z,12.68
2023-01-30T07:43:40.940Z,11.98
2023-01-30T07:46:18.441Z,10.05
2023-01-30T07:48:55.276Z,9.75
2023-01-30T07:51:30.995Z,11.02
2023-01-30T07:54:17.658Z,11.18
2023-01-30T07:56:53.311Z,11.90
2023-01-30T07:59:29.945Z,9.88
2023-01-30T08:02:26.199Z,12.20
2023-01-30T08:05:04.564Z,13.18
2023-01-30T08:07:44.644Z,13.57
2023-01-30T08:10:20.859Z,11.35
2023-01-30T08:12:57.202Z,11.30
2023-01-30T08:15:33.540Z,11.98
2023-01-30T08:18:12.002Z,10.07
2023-01-30T08:20:54.024Z,11.32
2023-01-30T08:24:00.258Z,13.75
2023-01-30T08:27:04.948Z,13.18
2023-01-30T08:29:51.036Z,13.88
2023-01-30T08:32:27.158Z,17.33
2023-01-30T08:35:29.694Z,13.30
2023-01-30T08:38:00.870Z,17.63
2023-01-30T08:40:37.023Z,18.50
2023-01-30T08:43:13.824Z,19.88
2023-01-30T08:45:49.229Z,17.35
2023-01-30T08:48:25.398Z,18.42
2023-01-30T08:51:04.455Z,17.33
2023-01-30T08:53:43.613Z,19.67
2023-01-30T08:56:20.122Z,18.17
2023-01-30T08:58:55.446Z,21.00
2023-01-30T09:01:31.041Z,19.63
2023-01-30T09:04:06.363Z,21.70
2023-01-30T09:06:44.581Z,18.63
2023-01-30T09:09:20.143Z,18.02
2023-01-30T09:11:55.870Z,15.15
2023-01-30T09:15:03.324Z,16.63
2023-01-30T09:17:39.925Z,14.50
2023-01-30T09:20:16.610Z,13.23
2023-01-30T09:22:54.718Z,15.70
2023-01-30T09:26:13.059Z,16.25
2023-01-30T09:28:48.357Z,17.67
2023-01-30T09:31:23.456Z,14.02
2023-01-30T09:33:58.765Z,14.15
2023-01-30T09:36:35.593Z,15.77
2023-01-30T09:39:40.504Z,12.85
2023-01-30T09:42:39.078Z,17.88
2023-01-30T09:45:38.397Z,15.77
2023-01-30T09:48:20.201Z,15.02
2023-01-30T09:51:20.422Z,16.15
2023-01-30T09:54:50.009Z,19.75
2023-01-30T09:57:29.189Z,21.88
2023-01-30T10:00:22.183Z,25.27
2023-01-30T10:03:04.101Z,16.30
2023-01-30T10:05:47.496Z,14.40
2023-01-30T10:08:49.258Z,18.92
2023-01-30T10:11:37.635Z,21.60
2023-01-30T10:14:58.328Z,27.52
2023-01-30T10:17:48.855Z,15.18
2023-01-30T10:20:42.280Z,15.15
2023-01-30T10:23:39.311Z,16.60
2023-01-30T10:26:24.613Z,20.27
2023-01-30T10:29:08.224Z,20.48
2023-01-30T10:32:15.346Z,16.35
2023-01-30T10:34:57.205Z,17.92
2023-01-30T10:37:59.309Z,14.63
2023-01-30T10:40:40.494Z,19.73
2023-01-30T10:43:26.055Z,10.88
2023-01-30T10:46:18.908Z,15.57
2023-01-30T10:49:05.624Z,12.13
2023-01-30T10:52:00.319Z,13.25
2023-01-30T10:55:01.092Z,13.80
2023-01-30T10:58:20.602Z,13.43
2023-01-30T11:01:02.877Z,11.88
2023-01-30T11:03:45.019Z,13.68
2023-01-30T11:06:28.075Z,14.10
2023-01-30T11:09:03.461Z,17.30
2023-01-30T11:11:47.996Z,15.00
2023-01-30T11:14:26.302Z,15.40
2023-01-30T11:17:04.222Z,16.25
2023-01-30T11:19:42.210Z,17.58
2023-01-30T11:22:21.965Z,13.55
2023-01-30T11:25:06.840Z,16.02
2023-01-30T11:28:26.768Z,16.17
2023-01-30T11:31:04.888Z,16.38
2023-01-30T11:33:50.679Z,13.40
2023-01-30T11:36:38.929Z,11.90
2023-01-30T11:39:37.264Z,13.45
2023-01-30T11:42:16.207Z,16.65
2023-01-30T11:44:54.255Z,15.60
2023-01-30T11:48:12.403Z,19.17
2023-01-30T11:51:03.852Z,20.65
2023-01-30T11:53:44.325Z,20.55
2023-01-30T11:56:27.062Z,17.65
2023-01-30T11:59:03.639Z,18.67
2023-01-30T12:01:41.410Z,19.83
2023-01-30T12:04:18.643Z,21.20
2023-01-30T12:07:35.747Z,17.23
2023-01-30T12:10:41.024Z,19.02
2023-01-30T12:13:35.821Z,17.83
2023-01-30T12:16:22.225Z,20.35
2023-01-30T12:19:05.318Z,18.40
2023-01-30T12:22:29.707Z,17.45
2023-01-30T12:25:05.863Z,18.27
2023-01-30T12:28:03.174Z,17.15
2023-01-30T12:30:45.657Z,13.27
2023-01-30T12:33:24.058Z,19.65
2023-01-30T12:36:09.794Z,14.20
2023-01-30T12:39:09.165Z,15.10
2023-01-30T12:41:59.961Z,14.43
2023-01-30T12:45:02.942Z,15.82
2023-01-30T12:47:58.045Z,16.63
2023-01-30T12:50:45.706Z,15.48
2023-01-30T12:53:39.578Z,18.00
2023-01-30T12:56:41.026Z,16.95
2023-01-30T12:59:24.868Z,14.02
2023-01-30T13:02:13.879Z,14.88
2023-01-30T13:05:05.500Z,13.35
2023-01-30T13:07:51.063Z,14.02
2023-01-30T13:10:35.395Z,15.43
2023-01-30T13:13:18.954Z,12.07
2023-01-30T13:16:06.452Z,14.93
2023-01-30T13:18:49.581Z,16.58
2023-01-30T13:21:33.850Z,13.45
2023-01-30T13:24:21.190Z,13.23
2023-01-30T13:26:59.944Z,14.02
2023-01-30T13:29:37.622Z,14.00
2023-01-30T13:32:26.659Z,15.57
2023-01-30T13:35:05.669Z,12.60
2023-01-30T13:37:44.391Z,13.98
2023-01-30T13:40:23.097Z,13.57
2023-01-30T13:43:03.292Z,13.45
2023-01-30T13:45:40.391Z,13.23
2023-01-30T13:48:33.326Z,13.63
2023-01-30T13:51:23.932Z,14.32
2023-01-30T13:54:07.683Z,14.55
2023-01-30T13:56:47.870Z,14.32
2023-01-30T13:59:34.599Z,12.48
2023-01-30T14:02:22.836Z,12.18
2023-01-30T14:04:59.440Z,14.35
2023-01-30T14:07:36.489Z,14.45
2023-01-30T14:10:21.824Z,13.98
2023-01-30T14:12:58.122Z,14.02
2023-01-30T14:15:33.972Z,11.45
2023-01-30T14:18:12.170Z,16.38
2023-01-30T14:20:53.763Z,13.20
2023-01-30T14:23:34.177Z,14.10
2023-01-30T14:26:11.448Z,12.60
2023-01-30T14:28:51.915Z,13.43
2023-01-30T14:31:57.497Z,13.68
2023-01-30T14:35:09.543Z,14.55
2023-01-30T14:38:16.001Z,11.48
2023-01-30T14:41:16.030Z,14.50
2023-01-30T14:43:57.095Z,16.98
2023-01-30T14:46:54.429Z,15.45
2023-01-30T14:49:34.015Z,17.65
2023-01-30T14:52:10.710Z,11.85
2023-01-30T14:54:53.561Z,13.07
2023-01-30T14:57:34.360Z,16.15
2023-01-30T15:00:22.685Z,13.98
2023-01-30T15:03:03.545Z,13.25
2023-01-30T15:05:41.651Z,10.45
2023-01-30T15:08:22.772Z,10.45
2023-01-30T15:11:08.834Z,11.55
2023-01-30T15:14:09.387Z,11.57
2023-01-30T15:17:07.695Z,16.70
2023-01-30T15:20:03.395Z,13.98
2023-01-30T15:22:48.264Z,12.00
2023-01-30T15:25:46.497Z,15.07
2023-01-30T15:28:33.622Z,11.65
2023-01-30T15:31:21.828Z,15.90
2023-01-30T15:34:00.557Z,13.52
2023-01-30T15:36:38.170Z,12.13
2023-01-30T15:39:25.411Z,11.23
2023-01-30T15:42:09.891Z,11.77
2023-01-30T15:44:59.627Z,11.30
2023-01-30T15:47:52.446Z,11.95
2023-01-30T15:50:30.632Z,15.00
2023-01-30T15:53:06.409Z,13.98
2023-01-30T15:55:42.847Z,10.30
2023-01-30T15:58:21.976Z,13.20
2023-01-30T16:01:01.116Z,11.45
2023-01-30T16:03:39.766Z,13.65
2023-01-30T16:06:28.507Z,13.50
2023-01-30T16:09:07.082Z,11.60
2023-01-30T16:11:44.022Z,14.00
2023-01-30T16:14:20.617Z,12.25
2023-01-30T16:17:00.591Z,12.90
2023-01-30T16:19:39.020Z,9.45
2023-01-30T16:22:22.683Z,7.68
2023-01-30T16:24:59.060Z,14.23
2023-01-30T16:27:36.241Z,12.20
2023-01-30T16:30:13.528Z,9.20
2023-01-30T16:32:49.339Z,14.73
2023-01-30T16:35:35.607Z,11.35
2023-01-30T16:38:33.318Z,9.05
2023-01-30T16:41:09.700Z,13.63
2023-01-30T16:43:46.131Z,14.48
2023-01-30T16:47:01.822Z,10.90
2023-01-30T16:49:50.404Z,9.95
2023-01-30T16:52:27.950Z,12.13
2023-01-30T16:55:07.885Z,13.65
2023-01-30T16:57:47.189Z,11.43
2023-01-30T17:00:27.966Z,9.27
2023-01-30T17:03:05.145Z,10.27
2023-01-30T17:05:48.755Z,14.55
2023-01-30T17:08:53.982Z,11.43
2023-01-30T17:11:44.807Z,16.50
2023-01-30T17:14:26.516Z,12.68
2023-01-30T17:17:12.301Z,11.30
2023-01-30T17:19:50.783Z,15.10
2023-01-30T17:22:26.698Z,9.80
2023-01-30T17:25:06.215Z,14.07
2023-01-30T17:27:44.244Z,12.95
2023-01-30T17:30:22.570Z,11.88
2023-01-30T17:32:58.710Z,15.18
2023-01-30T17:35:34.085Z,15.55
2023-01-30T17:38:09.969Z,10.65
2023-01-30T17:40:46.737Z,11.73
2023-01-30T17:43:23.630Z,11.73
2023-01-30T17:45:58.659Z,11.63
2023-01-30T17:48:34.481Z,15.98
2023-01-30T17:51:09.513Z,11.77
2023-01-30T17:53:44.429Z,10.70
2023-01-30T17:56:23.829Z,12.75
2023-01-30T17:59:01.584Z,16.20
2023-01-30T18:01:36.823Z,12.70
2023-01-30T18:04:11.760Z,12.50
2023-01-30T18:06:48.587Z,16.13
2023-01-30T18:09:26.681Z,11.93
2023-01-30T18:12:02.579Z,17.98
2023-01-30T18:14:39.856Z,14.13
2023-01-30T18:17:16.026Z,13.52
2023-01-30T18:19:51.962Z,12.40
2023-01-30T18:22:27.660Z,17.20
2023-01-30T18:25:02.755Z,13.77
2023-01-30T18:27:38.645Z,11.57
2023-01-30T18:30:18.602Z,13.68
2023-01-30T18:32:54.373Z,12.18
2023-01-30T18:35:29.460Z,15.00
2023-01-30T18:38:04.593Z,14.55
2023-01-30T18:40:43.212Z,11.25
2023-01-30T18:43:18.896Z,13.88
2023-01-30T18:46:05.105Z,13.02
2023-01-30T18:48:40.575Z,11.15
2023-01-30T18:51:17.476Z,10.25
2023-01-30T18:53:53.683Z,12.75
2023-01-30T18:56:30.257Z,15.10
2023-01-30T18:59:07.087Z,12.43
2023-01-30T19:01:46.091Z,12.00
2023-01-30T19:04:21.254Z,13.05
2023-01-30T19:06:57.239Z,13.40
2023-01-30T19:09:32.653Z,11.23
2023-01-30T19:12:24.551Z,13.35
2023-01-30T19:15:00.483Z,13.32
2023-01-30T19:17:37.606Z,10.95
2023-01-30T19:20:14.411Z,12.77
2023-01-30T19:22:50.461Z,10.18
2023-01-30T19:25:26.229Z,15.95
2023-01-30T19:28:01.299Z,13.65
2023-01-30T19:30:37.343Z,11.95
2023-01-30T19:33:15.638Z,10.93
2023-01-30T19:35:50.780Z,14.27
2023-01-30T19:38:26.032Z,14.52
2023-01-30T19:41:01.611Z,10.10
2023-01-30T19:43:37.756Z,11.98
2023-01-30T19:46:14.472Z,15.10
2023-01-30T19:48:52.274Z,12.32
2023-01-30T19:51:28.645Z,10.25
2023-01-30T19:54:06.219Z,12.55
2023-01-30T19:56:43.516Z,12.68
2023-01-30T19:59:19.596Z,14.55
2023-01-30T20:01:57.975Z,12.20
2023-01-30T20:04:36.717Z,12.00
2023-01-30T20:07:12.779Z,11.10
2023-01-30T20:09:47.836Z,14.90
2023-01-30T20:12:23.877Z,9.75
2023-01-30T20:14:59.644Z,11.13
2023-01-30T20:17:37.552Z,15.13
2023-01-30T20:20:15.783Z,10.85
2023-01-30T20:22:50.890Z,12.20
2023-01-30T20:25:26.816Z,11.13
2023-01-30T20:28:05.728Z,10.90
2023-01-30T20:30:43.721Z,15.45
2023-01-30T20:33:19.743Z,12.20
2023-01-30T20:36:00.529Z,10.70
2023-01-30T20:38:37.126Z,7.78
2023-01-30T20:41:13.235Z,9.85
2023-01-30T20:43:50.921Z,13.45
2023-01-30T20:46:28.493Z,14.93
2023-01-30T20:49:05.007Z,9.77
2023-01-30T20:51:42.065Z,10.30
2023-01-30T20:54:19.445Z,13.35
2023-01-30T20:56:58.304Z,11.52
2023-01-30T20:59:34.818Z,9.38
2023-01-30T21:02:08.948Z,10.23
2023-01-30T21:04:43.888Z,10.70
2023-01-30T21:07:19.976Z,10.30
2023-01-30T21:09:55.049Z,10.63
2023-01-30T21:12:30.320Z,10.25
2023-01-30T21:15:05.362Z,10.90
2023-01-30T21:17:40.935Z,11.48
2023-01-30T21:20:17.114Z,8.18
2023-01-30T21:22:54.540Z,8.73
2023-01-30T21:25:29.504Z,8.43
2023-01-30T21:28:07.764Z,10.65
2023-01-30T21:30:43.702Z,10.43
2023-01-30T21:33:19.164Z,9.75
2023-01-30T21:35:54.817Z,8.18
2023-01-30T21:38:48.096Z,11.35
2023-01-30T21:41:40.689Z,9.50
2023-01-30T21:44:17.728Z,8.85
2023-01-30T21:46:52.393Z,9.80
2023-01-30T21:49:27.433Z,8.93
2023-01-30T21:52:01.888Z,8.82
2023-01-30T21:54:39.042Z,8.98
2023-01-30T21:57:13.534Z,11.52
2023-01-30T21:59:49.370Z,7.32
2023-01-30T22:02:24.399Z,10.10
2023-01-30T22:05:01.929Z,8.63
2023-01-30T22:07:36.695Z,13.00
2023-01-30T22:10:13.760Z,8.45
2023-01-30T22:12:47.982Z,8.52
2023-01-30T22:15:23.053Z,13.95
2023-01-30T22:17:58.740Z,7.45
2023-01-30T22:20:34.242Z,13.07
2023-01-30T22:23:08.489Z,10.25
2023-01-30T22:25:44.813Z,9.85
2023-01-30T22:28:19.069Z,10.27
2023-01-30T22:30:54.084Z,9.35
2023-01-30T22:33:28.290Z,11.00
2023-01-30T22:36:03.944Z,6.00
2023-01-30T22:38:38.584Z,11.25
2023-01-30T22:41:17.617Z,9.65
2023-01-30T22:43:53.453Z,8.70
2023-01-30T22:46:29.277Z,10.63
2023-01-30T22:49:04.165Z,9.63
2023-01-30T22:51:41.062Z,12.10
2023-01-30T22:54:17.351Z,11.40
2023-01-30T22:56:54.367Z,10.90
2023-01-30T22:59:28.718Z,9.68
2023-01-30T23:02:03.691Z,10.10
2023-01-30T23:04:37.973Z,9.70
2023-01-30T23:07:14.898Z,8.75
2023-01-30T23:09:49.443Z,9.43
2023-01-30T23:12:42.190Z,7.63
2023-01-30T23:15:17.624Z,13.85
2023-01-30T23:18:09.791Z,10.68
2023-01-30T23:20:44.046Z,7.60
2023-01-30T23:23:18.988Z,7.55
2023-01-30T23:25:53.116Z,7.20
2023-01-30T23:28:29.693Z,10.57
2023-01-30T23:31:09.691Z,8.15
2023-01-30T23:33:45.168Z,8.45
2023-01-30T23:36:20.798Z,9.35
2023-01-30T23:38:56.006Z,6.68
2023-01-30T23:41:32.778Z,8.02
2023-01-30T23:44:11.516Z,9.32
2023-01-30T23:46:49.372Z,12.10
2023-01-30T23:49:26.478Z,7.50
2023-01-30T23:52:01.655Z,7.28
2023-01-30T23:54:36.620Z,7.25
2023-01-30T23:57:10.848Z,9.98
2023-01-30T23:59:48.113Z,9.90
